createdAt,value
2023-05-19T00:00:16.892Z,3.90
2023-05-19T00:02:49.870Z,4.10
2023-05-19T00:05:03.708Z,4.40
2023-05-19T00:07:21.962Z,4.00
2023-05-19T00:09:34.797Z,3.40
2023-05-19T00:11:47.636Z,3.30
2023-05-19T00:14:00.689Z,3.60
2023-05-19T00:16:13.935Z,3.90
2023-05-19T00:18:26.665Z,3.40
2023-05-19T00:20:39.937Z,3.70
2023-05-19T00:22:52.550Z,3.80
2023-05-19T00:25:06.268Z,3.80
2023-05-19T00:27:18.838Z,3.30
2023-05-19T00:29:31.425Z,3.80
2023-05-19T00:31:44.265Z,3.50
2023-05-19T00:33:57.158Z,3.40
2023-05-19T00:36:09.858Z,3.50
2023-05-19T00:38:22.495Z,3.70
2023-05-19T00:40:36.472Z,3.40
2023-05-19T00:42:49.198Z,3.30
2023-05-19T00:45:02.049Z,3.30
2023-05-19T00:47:14.937Z,3.50
2023-05-19T00:49:27.536Z,3.50
2023-05-19T00:51:41.069Z,3.60
2023-05-19T00:53:53.889Z,3.50
2023-05-19T00:56:06.803Z,3.70
2023-05-19T00:58:19.553Z,3.40
2023-05-19T01:00:32.664Z,3.60
2023-05-19T01:02:45.726Z,3.80
2023-05-19T01:04:59.020Z,3.80
2023-05-19T01:07:12.527Z,3.50
2023-05-19T01:09:25.212Z,4.00
2023-05-19T01:11:37.759Z,3.90
2023-05-19T01:13:51.153Z,4.00
2023-05-19T01:16:13.112Z,3.60
2023-05-19T01:18:32.360Z,3.60
2023-05-19T01:20:52.479Z,3.90
2023-05-19T01:23:21.456Z,3.70
2023-05-19T01:26:00.948Z,3.90
2023-05-19T01:28:19.710Z,4.00
2023-05-19T01:30:43.612Z,3.30
2023-05-19T01:33:02.762Z,3.30
2023-05-19T01:35:16.681Z,3.80
2023-05-19T01:37:30.270Z,3.70
2023-05-19T01:39:44.620Z,3.60
2023-05-19T01:41:58.197Z,3.90
2023-05-19T01:44:11.765Z,3.90
2023-05-19T01:46:24.817Z,3.40
2023-05-19T01:48:38.587Z,3.80
2023-05-19T01:50:51.523Z,3.80
2023-05-19T01:53:04.384Z,3.40
2023-05-19T01:55:17.236Z,3.40
2023-05-19T01:57:48.635Z,3.70
2023-05-19T02:00:09.294Z,3.80
2023-05-19T02:02:51.193Z,3.60
2023-05-19T02:05:13.499Z,4.00
2023-05-19T02:07:35.675Z,3.80
2023-05-19T02:09:59.320Z,4.10
2023-05-19T02:12:37.687Z,3.60
2023-05-19T02:14:59.794Z,4.10
2023-05-19T02:17:15.792Z,4.20
2023-05-19T02:19:33.474Z,4.10
2023-05-19T02:21:46.036Z,3.90
2023-05-19T02:23:58.659Z,4.40
2023-05-19T02:26:11.275Z,4.30
2023-05-19T02:28:27.724Z,4.20
2023-05-19T02:30:40.265Z,3.80
2023-05-19T02:32:54.213Z,4.20
2023-05-19T02:35:07.198Z,4.30
2023-05-19T02:37:23.786Z,4.30
2023-05-19T02:39:36.381Z,4.20
2023-05-19T02:41:49.005Z,4.00
2023-05-19T02:44:01.581Z,4.10
2023-05-19T02:46:14.167Z,3.90
2023-05-19T02:48:26.887Z,4.30
2023-05-19T02:50:39.654Z,4.00
2023-05-19T02:52:53.858Z,4.00
2023-05-19T02:55:06.726Z,4.40
2023-05-19T02:57:19.487Z,4.10
2023-05-19T02:59:32.188Z,4.30
2023-05-19T03:01:44.931Z,4.50
2023-05-19T03:03:57.622Z,4.20
2023-05-19T03:06:10.220Z,4.30
2023-05-19T03:08:22.834Z,4.20
2023-05-19T03:10:36.300Z,4.30
2023-05-19T03:12:48.952Z,4.50
2023-05-19T03:15:01.718Z,4.40
2023-05-19T03:17:14.340Z,4.20
2023-05-19T03:19:27.595Z,4.30
2023-05-19T03:21:40.613Z,4.20
2023-05-19T03:23:54.631Z,4.10
2023-05-19T03:26:07.199Z,4.20
2023-05-19T03:28:20.028Z,4.20
2023-05-19T03:30:32.938Z,4.20
2023-05-19T03:32:45.808Z,4.60
2023-05-19T03:34:58.972Z,4.30
2023-05-19T03:37:12.780Z,4.00
2023-05-19T03:39:25.431Z,4.10
2023-05-19T03:41:38.028Z,4.00
2023-05-19T03:43:50.654Z,4.40
2023-05-19T03:46:03.424Z,4.10
2023-05-19T03:48:16.547Z,4.40
2023-05-19T03:50:31.632Z,4.20
2023-05-19T03:52:46.457Z,4.60
2023-05-19T03:54:59.027Z,4.30
2023-05-19T03:57:11.871Z,4.10
2023-05-19T03:59:24.667Z,4.30
2023-05-19T04:01:37.313Z,4.10
2023-05-19T04:03:49.882Z,4.10
2023-05-19T04:06:03.089Z,3.90
2023-05-19T04:08:15.849Z,3.90
2023-05-19T04:10:28.570Z,4.00
2023-05-19T04:12:41.209Z,4.10
2023-05-19T04:14:53.871Z,4.10
2023-05-19T04:17:06.691Z,3.90
2023-05-19T04:19:19.530Z,4.00
2023-05-19T04:21:32.109Z,3.60
2023-05-19T04:23:44.763Z,3.70
2023-05-19T04:25:58.141Z,4.00
2023-05-19T04:28:10.728Z,3.90
2023-05-19T04:30:24.482Z,4.00
2023-05-19T04:32:37.630Z,3.90
2023-05-19T04:34:50.338Z,3.60
2023-05-19T04:37:02.997Z,4.10
2023-05-19T04:39:15.696Z,3.70
2023-05-19T04:41:28.715Z,4.00
2023-05-19T04:43:44.492Z,3.60
2023-05-19T04:45:58.238Z,3.70
2023-05-19T04:48:12.201Z,3.60
2023-05-19T04:50:25.233Z,3.60
2023-05-19T04:52:37.923Z,3.40
2023-05-19T04:54:50.619Z,3.60
2023-05-19T04:57:03.932Z,3.40
2023-05-19T04:59:16.545Z,3.30
2023-05-19T05:01:31.241Z,3.50
2023-05-19T05:03:44.546Z,3.10
2023-05-19T05:05:58.659Z,3.20
2023-05-19T05:08:11.408Z,3.50
2023-05-19T05:10:24.055Z,3.20
2023-05-19T05:12:36.937Z,3.00
2023-05-19T05:14:49.787Z,3.10
2023-05-19T05:17:03.020Z,3.30
2023-05-19T05:19:16.012Z,3.10
2023-05-19T05:21:29.501Z,3.20
2023-05-19T05:23:42.351Z,3.30
2023-05-19T05:25:55.230Z,2.90
2023-05-19T05:28:07.786Z,3.20
2023-05-19T05:30:20.671Z,2.90
2023-05-19T05:32:33.438Z,3.20
2023-05-19T05:34:46.321Z,2.90
2023-05-19T05:36:58.962Z,3.10
2023-05-19T05:39:11.571Z,3.10
2023-05-19T05:41:24.215Z,3.00
2023-05-19T05:43:36.986Z,2.90
2023-05-19T05:45:49.712Z,2.90
2023-05-19T05:48:02.559Z,3.10
2023-05-19T05:50:15.714Z,2.90
2023-05-19T05:52:30.875Z,2.90
2023-05-19T05:54:43.792Z,2.80
2023-05-19T05:56:56.937Z,2.90
2023-05-19T05:59:09.514Z,2.80
2023-05-19T06:01:23.998Z,3.00
2023-05-19T06:03:46.192Z,2.50
2023-05-19T06:05:58.911Z,2.90
2023-05-19T06:08:11.612Z,3.00
2023-05-19T06:10:24.218Z,3.10
2023-05-19T06:12:40.569Z,3.10
2023-05-19T06:14:53.319Z,2.90
2023-05-19T06:17:08.140Z,3.00
2023-05-19T06:19:21.465Z,2.90
2023-05-19T06:21:34.170Z,2.80
2023-05-19T06:23:46.761Z,2.90
2023-05-19T06:25:59.404Z,2.90
2023-05-19T06:28:12.042Z,2.60
2023-05-19T06:30:24.795Z,3.00
2023-05-19T06:32:37.370Z,2.90
2023-05-19T06:34:54.652Z,2.80
2023-05-19T06:37:07.314Z,3.10
2023-05-19T06:39:19.941Z,3.00
2023-05-19T06:41:32.547Z,3.10
2023-05-19T06:43:45.122Z,2.90
2023-05-19T06:45:57.779Z,3.10
2023-05-19T06:48:10.499Z,2.90
2023-05-19T06:50:23.278Z,3.10
2023-05-19T06:52:36.202Z,3.10
2023-05-19T06:54:49.438Z,3.20
2023-05-19T06:57:02.687Z,2.80
2023-05-19T06:59:16.174Z,2.80
2023-05-19T07:01:30.230Z,2.70
2023-05-19T07:03:43.184Z,3.00
2023-05-19T07:05:56.154Z,2.70
2023-05-19T07:08:08.818Z,2.70
2023-05-19T07:10:21.974Z,3.00
2023-05-19T07:12:34.572Z,3.10
2023-05-19T07:14:47.180Z,3.00
2023-05-19T07:16:59.687Z,2.90
2023-05-19T07:19:12.332Z,2.50
2023-05-19T07:21:24.967Z,2.50
2023-05-19T07:23:37.578Z,2.50
2023-05-19T07:25:50.127Z,2.50
2023-05-19T07:28:02.822Z,2.60
2023-05-19T07:30:15.487Z,3.00
2023-05-19T07:32:28.094Z,2.60
2023-05-19T07:34:40.876Z,2.50
2023-05-19T07:36:53.611Z,2.50
2023-05-19T07:39:06.738Z,2.60
2023-05-19T07:41:19.317Z,2.80
2023-05-19T07:43:31.918Z,2.60
2023-05-19T07:45:44.521Z,2.50
2023-05-19T07:47:57.226Z,2.40
2023-05-19T07:50:09.957Z,2.70
2023-05-19T07:52:22.491Z,2.40
2023-05-19T07:54:35.086Z,2.30
2023-05-19T07:56:48.228Z,2.20
2023-05-19T07:59:00.824Z,2.40
2023-05-19T08:01:13.423Z,2.30
2023-05-19T08:03:26.845Z,2.20
2023-05-19T08:05:39.562Z,2.30
2023-05-19T08:07:52.195Z,2.20
2023-05-19T08:10:05.220Z,2.20
2023-05-19T08:12:17.814Z,2.20
2023-05-19T08:14:31.251Z,2.10
2023-05-19T08:16:45.706Z,2.30
2023-05-19T08:19:01.059Z,2.10
2023-05-19T08:21:13.724Z,2.40
2023-05-19T08:23:26.431Z,2.20
2023-05-19T08:25:39.069Z,2.20
2023-05-19T08:27:52.087Z,2.40
2023-05-19T08:30:05.157Z,2.60
2023-05-19T08:32:17.970Z,2.50
2023-05-19T08:34:30.990Z,2.70
2023-05-19T08:36:45.235Z,2.50
2023-05-19T08:38:57.793Z,2.80
2023-05-19T08:41:10.662Z,2.60
2023-05-19T08:43:23.225Z,2.80
2023-05-19T08:45:36.030Z,2.70
2023-05-19T08:47:50.934Z,3.00
2023-05-19T08:50:10.733Z,2.70
2023-05-19T08:52:52.550Z,2.50
2023-05-19T08:55:13.045Z,2.60
2023-05-19T08:57:25.780Z,2.90
2023-05-19T08:59:39.824Z,2.60
2023-05-19T09:01:54.706Z,2.70
2023-05-19T09:04:07.581Z,2.60
2023-05-19T09:06:21.316Z,2.90
2023-05-19T09:08:34.857Z,2.90
2023-05-19T09:10:47.422Z,2.70
2023-05-19T09:13:00.088Z,2.50
2023-05-19T09:15:13.403Z,2.80
2023-05-19T09:17:26.067Z,2.60
2023-05-19T09:19:43.236Z,2.60
2023-05-19T09:22:01.090Z,2.50
2023-05-19T09:24:13.652Z,2.50
2023-05-19T09:26:37.331Z,2.50
2023-05-19T09:28:49.937Z,2.50
2023-05-19T09:31:06.126Z,2.80
2023-05-19T09:33:19.975Z,2.50
2023-05-19T09:35:34.685Z,2.90
2023-05-19T09:37:47.432Z,2.60
2023-05-19T09:40:00.378Z,2.70
2023-05-19T09:42:13.919Z,2.60
2023-05-19T09:44:30.499Z,2.60
2023-05-19T09:46:52.893Z,2.50
2023-05-19T09:49:09.708Z,2.60
2023-05-19T09:51:22.398Z,2.80
2023-05-19T09:53:35.333Z,2.80
2023-05-19T09:55:48.696Z,2.60
2023-05-19T09:58:04.154Z,2.50
2023-05-19T10:00:18.460Z,2.70
2023-05-19T10:02:32.230Z,3.00
2023-05-19T10:04:45.122Z,2.80
2023-05-19T10:07:01.462Z,2.90
2023-05-19T10:09:15.929Z,3.00
2023-05-19T10:11:30.570Z,3.20
2023-05-19T10:13:45.716Z,3.20
2023-05-19T10:15:59.612Z,2.80
2023-05-19T10:18:17.510Z,3.00
2023-05-19T10:20:31.621Z,3.30
2023-05-19T10:22:46.254Z,3.20
2023-05-19T10:24:58.983Z,3.60
2023-05-19T10:27:14.924Z,4.10
2023-05-19T10:29:31.687Z,4.20
2023-05-19T10:31:46.860Z,4.10
2023-05-19T10:34:37.437Z,3.80
2023-05-19T10:37:03.510Z,3.90
2023-05-19T10:39:28.007Z,4.10
2023-05-19T10:41:59.950Z,3.90
2023-05-19T10:44:28.992Z,4.00
2023-05-19T10:46:43.055Z,4.10
2023-05-19T10:48:55.930Z,3.70
2023-05-19T10:51:12.170Z,3.70
2023-05-19T10:53:31.346Z,3.50
2023-05-19T10:55:55.917Z,3.50
2023-05-19T10:58:08.592Z,3.60
2023-05-19T11:00:28.784Z,3.30
2023-05-19T11:02:43.849Z,3.00
2023-05-19T11:05:18.210Z,3.40
2023-05-19T11:07:30.906Z,3.30
2023-05-19T11:09:43.668Z,3.20
2023-05-19T11:11:57.089Z,3.00
2023-05-19T11:14:11.560Z,3.10
2023-05-19T11:16:32.499Z,3.30
2023-05-19T11:18:48.996Z,3.10
2023-05-19T11:21:04.637Z,3.40
2023-05-19T11:23:20.402Z,3.40
2023-05-19T11:25:47.470Z,3.40
2023-05-19T11:28:00.196Z,3.30
2023-05-19T11:30:14.969Z,3.20
2023-05-19T11:32:30.519Z,3.60
2023-05-19T11:34:44.524Z,3.60
2023-05-19T11:36:57.605Z,3.70
2023-05-19T11:39:11.273Z,3.80
2023-05-19T11:41:23.878Z,3.60
2023-05-19T11:43:36.547Z,3.80
2023-05-19T11:45:49.392Z,3.50
2023-05-19T11:48:05.440Z,3.40
2023-05-19T11:50:18.689Z,3.90
2023-05-19T11:52:31.632Z,4.00
2023-05-19T11:54:48.592Z,4.10
2023-05-19T11:57:02.789Z,3.90
2023-05-19T11:59:15.539Z,3.50
2023-05-19T12:01:28.522Z,3.80
2023-05-19T12:03:41.196Z,3.90
2023-05-19T12:05:54.441Z,3.90
2023-05-19T12:08:07.706Z,3.90
2023-05-19T12:10:24.474Z,4.00
2023-05-19T12:12:37.860Z,3.90
2023-05-19T12:14:51.646Z,4.00
2023-05-19T12:17:12.717Z,3.70
2023-05-19T12:19:25.996Z,3.90
2023-05-19T12:21:39.254Z,3.70
2023-05-19T12:23:52.360Z,4.00
2023-05-19T12:26:05.182Z,4.10
2023-05-19T12:28:19.376Z,4.10
2023-05-19T12:30:33.200Z,3.90
2023-05-19T12:32:46.838Z,3.90
2023-05-19T12:35:02.141Z,4.00
2023-05-19T12:37:14.822Z,3.90
2023-05-19T12:39:27.469Z,3.90
2023-05-19T12:41:40.084Z,4.10
2023-05-19T12:43:54.545Z,3.80
2023-05-19T12:46:11.728Z,3.90
2023-05-19T12:48:24.398Z,4.00
2023-05-19T12:50:37.789Z,3.70
2023-05-19T12:52:53.698Z,3.70
2023-05-19T12:55:07.786Z,3.90
2023-05-19T12:57:20.983Z,3.80
2023-05-19T12:59:38.760Z,4.00
2023-05-19T13:01:57.729Z,4.30
2023-05-19T13:04:10.606Z,4.00
2023-05-19T13:06:23.516Z,4.20
2023-05-19T13:08:37.025Z,3.90
2023-05-19T13:10:50.145Z,4.20
2023-05-19T13:13:03.425Z,4.20
2023-05-19T13:15:16.019Z,4.50
2023-05-19T13:17:28.683Z,4.40
2023-05-19T13:19:41.348Z,5.10
2023-05-19T13:21:54.343Z,5.50
2023-05-19T13:24:07.086Z,5.80
2023-05-19T13:26:19.677Z,5.60
2023-05-19T13:28:32.317Z,6.30
2023-05-19T13:30:45.369Z,5.80
2023-05-19T13:32:58.019Z,6.10
2023-05-19T13:35:11.759Z,6.30
2023-05-19T13:37:24.826Z,6.50
2023-05-19T13:39:37.632Z,6.30
2023-05-19T13:41:50.525Z,6.20
2023-05-19T13:44:03.132Z,6.20
2023-05-19T13:46:15.716Z,6.00
2023-05-19T13:48:28.299Z,5.40
2023-05-19T13:50:40.882Z,5.30
2023-05-19T13:52:53.884Z,5.10
2023-05-19T13:55:07.649Z,4.70
2023-05-19T13:57:20.300Z,5.00
2023-05-19T13:59:35.136Z,5.20
2023-05-19T14:01:49.901Z,4.90
2023-05-19T14:04:02.792Z,4.80
2023-05-19T14:06:15.466Z,5.20
2023-05-19T14:08:28.132Z,5.20
2023-05-19T14:10:42.123Z,5.20
2023-05-19T14:13:25.776Z,5.60
2023-05-19T14:15:27.424Z,5.60
2023-05-19T14:17:40.087Z,5.20
2023-05-19T14:19:52.726Z,5.00
2023-05-19T14:22:05.556Z,5.10
2023-05-19T14:24:18.267Z,5.30
2023-05-19T14:26:30.887Z,5.50
2023-05-19T14:28:43.674Z,5.70
2023-05-19T14:30:56.554Z,5.90
2023-05-19T14:33:09.298Z,5.60
2023-05-19T14:35:22.642Z,5.40
2023-05-19T14:37:35.208Z,5.90
2023-05-19T14:39:47.843Z,5.90
2023-05-19T14:42:00.860Z,7.20
2023-05-19T14:44:13.538Z,7.40
2023-05-19T14:46:26.155Z,7.90
2023-05-19T14:48:38.733Z,7.90
2023-05-19T14:50:51.522Z,7.80
2023-05-19T14:53:04.149Z,8.20
2023-05-19T14:55:16.897Z,7.90
2023-05-19T14:57:29.438Z,8.00
2023-05-19T14:59:42.045Z,8.50
2023-05-19T15:01:54.626Z,8.20
2023-05-19T15:04:07.367Z,8.50
2023-05-19T15:06:19.937Z,9.00
2023-05-19T15:08:32.513Z,9.10
2023-05-19T15:10:48.776Z,9.20
2023-05-19T15:13:01.676Z,10.80
2023-05-19T15:15:16.063Z,10.10
2023-05-19T15:17:28.722Z,10.70
2023-05-19T15:19:42.763Z,10.70
2023-05-19T15:21:55.332Z,10.70
2023-05-19T15:24:07.895Z,10.80
2023-05-19T15:26:20.936Z,10.50
2023-05-19T15:28:34.175Z,10.70
2023-05-19T15:30:46.812Z,10.50
2023-05-19T15:32:59.616Z,11.20
2023-05-19T15:35:12.328Z,11.00
2023-05-19T15:37:24.995Z,9.90
2023-05-19T15:39:37.629Z,10.00
2023-05-19T15:41:51.270Z,10.40
2023-05-19T15:44:04.151Z,9.80
2023-05-19T15:46:19.126Z,9.90
2023-05-19T15:48:32.346Z,9.80
2023-05-19T15:50:45.058Z,9.40
2023-05-19T15:52:57.786Z,9.50
2023-05-19T15:55:10.337Z,9.70
2023-05-19T15:57:22.979Z,9.60
2023-05-19T15:59:35.676Z,10.40
2023-05-19T16:01:49.108Z,10.90
2023-05-19T16:04:03.920Z,10.70
2023-05-19T16:06:17.693Z,10.00
2023-05-19T16:08:30.464Z,11.20
2023-05-19T16:10:43.080Z,10.20
2023-05-19T16:12:55.760Z,11.40
2023-05-19T16:15:08.824Z,10.20
2023-05-19T16:17:21.728Z,10.50
2023-05-19T16:19:34.327Z,10.60
2023-05-19T16:21:47.366Z,10.20
2023-05-19T16:24:00.044Z,10.50
2023-05-19T16:26:12.671Z,10.50
2023-05-19T16:28:25.434Z,10.90
2023-05-19T16:30:38.061Z,10.70
2023-05-19T16:32:50.750Z,10.00
2023-05-19T16:35:03.696Z,9.20
2023-05-19T16:37:16.465Z,9.70
2023-05-19T16:39:29.101Z,9.40
2023-05-19T16:41:41.752Z,9.20
2023-05-19T16:43:54.327Z,8.90
2023-05-19T16:46:07.088Z,8.70
2023-05-19T16:48:19.740Z,8.90
2023-05-19T16:50:32.555Z,9.10
2023-05-19T16:52:45.215Z,9.00
2023-05-19T16:54:57.808Z,8.90
2023-05-19T16:57:10.485Z,9.00
2023-05-19T16:59:23.124Z,8.70
2023-05-19T17:01:35.875Z,9.00
2023-05-19T17:03:48.616Z,9.10
2023-05-19T17:06:01.551Z,8.90
2023-05-19T17:08:14.173Z,8.40
2023-05-19T17:10:26.843Z,8.40
2023-05-19T17:12:39.407Z,8.60
2023-05-19T17:14:52.183Z,8.40
2023-05-19T17:17:04.972Z,8.10
2023-05-19T17:19:17.721Z,7.90
2023-05-19T17:21:31.420Z,8.30
2023-05-19T17:23:43.982Z,8.00
2023-05-19T17:25:56.653Z,8.30
2023-05-19T17:28:09.412Z,8.20
2023-05-19T17:30:22.176Z,8.20
2023-05-19T17:32:38.416Z,8.60
2023-05-19T17:34:51.492Z,8.50
2023-05-19T17:37:04.266Z,8.40
2023-05-19T17:39:17.111Z,8.10
2023-05-19T17:41:29.724Z,8.70
2023-05-19T17:43:42.837Z,8.30
2023-05-19T17:45:55.609Z,8.50
2023-05-19T17:48:08.287Z,8.20
2023-05-19T17:50:20.980Z,8.10
2023-05-19T17:52:34.184Z,8.20
2023-05-19T17:54:47.323Z,8.50
2023-05-19T17:57:03.360Z,8.60
2023-05-19T17:59:16.180Z,8.80
2023-05-19T18:01:29.103Z,8.40
2023-05-19T18:03:43.466Z,8.30
2023-05-19T18:05:56.648Z,8.60
2023-05-19T18:08:09.989Z,8.20
2023-05-19T18:10:25.740Z,8.60
2023-05-19T18:12:38.524Z,8.50
2023-05-19T18:14:51.078Z,8.70
2023-05-19T18:17:04.276Z,8.80
2023-05-19T18:19:16.919Z,8.70
2023-05-19T18:21:29.572Z,8.90
2023-05-19T18:23:42.252Z,9.10
2023-05-19T18:25:54.886Z,8.70
2023-05-19T18:28:07.945Z,8.50
2023-05-19T18:30:21.401Z,8.80
2023-05-19T18:32:34.187Z,8.60
2023-05-19T18:34:46.803Z,8.70
2023-05-19T18:36:59.407Z,8.80
2023-05-19T18:39:12.048Z,8.50
2023-05-19T18:41:25.032Z,8.20
2023-05-19T18:43:37.728Z,9.00
2023-05-19T18:45:50.314Z,9.10
2023-05-19T18:48:02.980Z,9.40
2023-05-19T18:50:17.772Z,9.00
2023-05-19T18:52:31.336Z,8.60
2023-05-19T18:54:45.884Z,8.50
2023-05-19T18:56:58.962Z,8.30
2023-05-19T18:59:11.571Z,8.90
2023-05-19T19:01:24.484Z,8.80
2023-05-19T19:03:37.374Z,9.10
2023-05-19T19:05:57.767Z,9.00
2023-05-19T19:08:10.499Z,9.00
2023-05-19T19:10:23.263Z,9.00
2023-05-19T19:12:35.946Z,8.90
2023-05-19T19:14:48.647Z,9.10
2023-05-19T19:17:01.288Z,9.40
2023-05-19T19:19:13.957Z,9.00
2023-05-19T19:21:26.678Z,9.40
2023-05-19T19:23:39.292Z,9.20
2023-05-19T19:25:52.001Z,9.60
2023-05-19T19:28:04.716Z,9.30
2023-05-19T19:30:17.599Z,9.50
2023-05-19T19:32:31.776Z,9.60
2023-05-19T19:34:45.109Z,9.90
2023-05-19T19:36:57.678Z,9.80
2023-05-19T19:39:10.265Z,10.30
2023-05-19T19:41:23.043Z,9.70
2023-05-19T19:43:35.712Z,9.00
2023-05-19T19:45:48.364Z,8.70
2023-05-19T19:48:01.651Z,7.60
2023-05-19T19:50:14.500Z,8.00
2023-05-19T19:52:27.043Z,7.80
2023-05-19T19:54:39.609Z,7.50
2023-05-19T19:56:52.206Z,7.60
2023-05-19T19:59:04.969Z,7.30
2023-05-19T20:01:20.278Z,7.40
2023-05-19T20:03:33.681Z,7.00
2023-05-19T20:05:46.658Z,6.70
2023-05-19T20:07:59.366Z,6.90
2023-05-19T20:10:12.166Z,6.50
2023-05-19T20:12:24.880Z,6.70
2023-05-19T20:14:37.559Z,6.40
2023-05-19T20:16:50.403Z,6.30
2023-05-19T20:19:03.240Z,6.20
2023-05-19T20:21:16.036Z,6.30
2023-05-19T20:23:28.591Z,7.00
2023-05-19T20:25:51.035Z,6.90
2023-05-19T20:28:07.990Z,6.60
2023-05-19T20:30:20.761Z,7.00
2023-05-19T20:32:33.460Z,6.80
2023-05-19T20:34:46.515Z,7.40
2023-05-19T20:36:59.249Z,7.30
2023-05-19T20:39:11.860Z,6.90
2023-05-19T20:41:24.415Z,7.00
2023-05-19T20:43:37.056Z,6.80
2023-05-19T20:45:49.966Z,7.20
2023-05-19T20:48:03.764Z,7.00
2023-05-19T20:50:16.518Z,7.10
2023-05-19T20:52:29.085Z,7.20
2023-05-19T20:54:41.971Z,6.80
2023-05-19T20:56:54.684Z,6.90
2023-05-19T20:59:07.249Z,7.10
2023-05-19T21:01:19.923Z,7.30
2023-05-19T21:03:32.594Z,7.40
2023-05-19T21:05:45.127Z,7.30
2023-05-19T21:07:57.845Z,7.40
2023-05-19T21:10:12.392Z,7.50
2023-05-19T21:12:25.311Z,7.60
2023-05-19T21:14:37.979Z,7.60
2023-05-19T21:16:54.134Z,8.00
2023-05-19T21:19:07.033Z,7.40
2023-05-19T21:21:19.661Z,8.00
2023-05-19T21:23:32.252Z,7.90
2023-05-19T21:25:45.495Z,7.80
2023-05-19T21:27:58.374Z,8.10
2023-05-19T21:30:11.489Z,8.20
2023-05-19T21:36:12.015Z,8.20
2023-05-19T21:38:24.953Z,9.00
2023-05-19T21:40:37.793Z,9.20
2023-05-19T21:42:50.496Z,9.10
2023-05-19T21:45:03.232Z,9.50
2023-05-19T21:47:16.053Z,9.90
2023-05-19T21:49:28.597Z,9.80
2023-05-19T21:51:41.220Z,10.20
2023-05-19T21:53:53.864Z,10.80
2023-05-19T21:56:06.548Z,10.50
2023-05-19T21:58:19.297Z,10.90
2023-05-19T22:00:32.003Z,10.60
2023-05-19T22:02:45.045Z,10.80
2023-05-19T22:04:57.697Z,10.70
2023-05-19T22:07:10.437Z,10.70
2023-05-19T22:09:23.218Z,10.70
2023-05-19T22:11:35.886Z,10.20
2023-05-19T22:13:48.470Z,10.90
2023-05-19T22:16:01.327Z,11.20
2023-05-19T22:18:13.963Z,10.40
2023-05-19T22:20:26.565Z,11.70
2023-05-19T22:22:39.131Z,11.40
2023-05-19T22:24:51.792Z,12.00
2023-05-19T22:27:07.613Z,12.10
2023-05-19T22:29:20.816Z,12.40
2023-05-19T22:31:33.417Z,12.10
2023-05-19T22:33:46.181Z,12.90
2023-05-19T22:35:58.753Z,13.30
2023-05-19T22:38:11.845Z,13.40
2023-05-19T22:40:24.754Z,13.30
2023-05-19T22:42:37.350Z,12.70
2023-05-19T22:44:49.925Z,12.30
2023-05-19T22:47:02.512Z,12.30
2023-05-19T22:49:15.094Z,12.50
2023-05-19T22:51:27.697Z,12.70
2023-05-19T22:53:42.469Z,12.70
2023-05-19T22:55:54.998Z,13.10
2023-05-19T22:58:07.610Z,12.90
2023-05-19T23:00:21.003Z,13.10
2023-05-19T23:02:33.854Z,13.30
2023-05-19T23:04:46.566Z,13.40
2023-05-19T23:06:59.535Z,13.40
2023-05-19T23:09:12.212Z,13.70
2023-05-19T23:11:24.736Z,13.90
2023-05-19T23:13:37.291Z,13.90
2023-05-19T23:15:49.889Z,14.10
2023-05-19T23:18:06.969Z,14.50
2023-05-19T23:20:19.603Z,13.90
2023-05-19T23:22:32.128Z,14.50
2023-05-19T23:24:44.773Z,13.80
2023-05-19T23:26:57.382Z,13.60
2023-05-19T23:29:14.712Z,13.60
2023-05-19T23:31:27.275Z,13.80
2023-05-19T23:33:39.887Z,13.80
2023-05-19T23:35:54.260Z,13.60
2023-05-19T23:38:06.812Z,13.30
2023-05-19T23:40:19.398Z,13.60
2023-05-19T23:42:32.033Z,13.60
2023-05-19T23:44:44.596Z,13.60
2023-05-19T23:46:57.158Z,13.20
2023-05-19T23:49:09.855Z,13.50
2023-05-19T23:51:22.392Z,13.20
2023-05-19T23:53:34.989Z,13.40
2023-05-19T23:55:47.506Z,13.20
2023-05-19T23:58:00.138Z,13.00
